Time;durP1;ratioP1;P1;durP2;ratioP2;P2;SDS_P1;SDS_P2;PMS_P1;PMS_P2;Temp;Humidity;BMP_temperature;BMP_pressure;BME280_temperature;BME280_humidity;BME280_pressure;Samples;Min_cycle;Max_cycle;Signal;HPM_P1;HPM_P2
2022/12/18 00:06:35;;;;;;;23.30;11.18;;;;;;;;;;21162454;28;20130;-63
2022/12/18 00:16:38;;;;;;;18.80;10.60;;;;;;;;;;21176267;28;20039;-62
2022/12/18 00:26:41;;;;;;;17.77;10.05;;;;;;;;;;21178341;28;20137;-62
2022/12/18 00:36:43;;;;;;;21.20;10.65;;;;;;;;;;21176571;28;20479;-62
2022/12/18 00:46:47;;;;;;;22.13;10.60;;;;;;;;;;21176303;28;20047;-61
2022/12/18 00:56:49;;;;;;;18.42;10.25;;;;;;;;;;21175283;28;20093;-62
2022/12/18 01:06:52;;;;;;;19.52;10.25;;;;;;;;;;21175299;28;20480;-62
2022/12/18 01:16:54;;;;;;;16.63;9.43;;;;;;;;;;21173913;28;20127;-62
2022/12/18 01:26:57;;;;;;;18.70;10.07;;;;;;;;;;21172896;28;20063;-60
2022/12/18 01:36:59;;;;;;;28.38;11.30;;;;;;;;;;21157034;28;20075;-60
2022/12/18 01:47:02;;;;;;;18.58;10.73;;;;;;;;;;21173869;28;20048;-60
2022/12/18 01:57:05;;;;;;;18.23;9.95;;;;;;;;;;21175260;28;20055;-61
2022/12/18 02:07:25;;;;;;;17.77;9.50;;;;;;;;;;21170875;28;20054;-62
2022/12/18 02:17:46;;;;;;;21.48;10.55;;;;;;;;;;21169898;28;20516;-62
2022/12/18 02:27:57;;;;;;;16.05;8.45;;;;;;;;;;21169120;28;20051;-61
2022/12/18 02:38:07;;;;;;;15.57;9.35;;;;;;;;;;21166958;28;20498;-60
2022/12/18 02:48:16;;;;;;;;;;;;;;;;;;21168262;28;20460;-60
2022/12/18 02:58:23;;;;;;;15.02;7.45;;;;;;;;;;21167621;28;19942;-61
2022/12/18 03:08:29;;;;;;;13.32;6.65;;;;;;;;;;21166253;28;20483;-61
2022/12/18 03:18:36;;;;;;;15.32;7.68;;;;;;;;;;21164568;28;20046;-62
2022/12/18 03:28:42;;;;;;;13.88;7.45;;;;;;;;;;21164532;28;20052;-62
2022/12/18 03:38:46;;;;;;;14.57;8.48;;;;;;;;;;21162896;28;20044;-61
2022/12/18 03:49:00;;;;;;;11.20;6.38;;;;;;;;;;21174152;28;20051;-62
2022/12/18 03:59:04;;;;;;;16.20;6.60;;;;;;;;;;21179898;28;20074;-62
2022/12/18 04:09:09;;;;;;;11.65;6.60;;;;;;;;;;21180454;28;20471;-62
2022/12/18 04:19:15;;;;;;;15.50;7.43;;;;;;;;;;21178158;28;20456;-63
2022/12/18 04:29:20;;;;;;;13.38;7.18;;;;;;;;;;21178010;28;20102;-62
2022/12/18 04:39:25;;;;;;;14.80;6.63;;;;;;;;;;21176817;28;20050;-62
2022/12/18 04:49:46;;;;;;;11.02;6.75;;;;;;;;;;21175698;28;20051;-61
2022/12/18 04:59:48;;;;;;;9.60;5.80;;;;;;;;;;21174723;28;20055;-62
2022/12/18 05:09:54;;;;;;;10.10;5.85;;;;;;;;;;21157290;28;20058;-63
2022/12/18 05:19:58;;;;;;;10.45;6.30;;;;;;;;;;21174416;28;20051;-61
2022/12/18 05:30:02;;;;;;;9.80;6.10;;;;;;;;;;21174411;28;20139;-61
2022/12/18 05:40:06;;;;;;;15.48;7.68;;;;;;;;;;21139459;28;20047;-61
2022/12/18 05:50:09;;;;;;;14.20;7.72;;;;;;;;;;21171674;28;20126;-61
2022/12/18 06:00:14;;;;;;;16.40;9.18;;;;;;;;;;21170903;28;20381;-62
2022/12/18 06:10:18;;;;;;;13.07;7.55;;;;;;;;;;21168934;28;20043;-61
2022/12/18 06:20:21;;;;;;;12.35;7.30;;;;;;;;;;21168685;28;20051;-62
2022/12/18 06:30:46;;;;;;;11.15;5.78;;;;;;;;;;21167909;28;20055;-61
2022/12/18 06:41:08;;;;;;;11.90;6.28;;;;;;;;;;21168994;28;20047;-61
2022/12/18 06:51:30;;;;;;;8.88;4.78;;;;;;;;;;21166484;28;20062;-62
2022/12/18 07:01:52;;;;;;;8.52;5.07;;;;;;;;;;21166279;28;20058;-61
2022/12/18 07:12:00;;;;;;;9.20;5.25;;;;;;;;;;21165071;28;20058;-62
2022/12/18 07:22:07;;;;;;;10.52;5.72;;;;;;;;;;21164035;28;20050;-61
2022/12/18 07:32:20;;;;;;;13.10;6.85;;;;;;;;;;21163767;28;20051;-62
2022/12/18 07:42:32;;;;;;;15.32;7.70;;;;;;;;;;21163842;28;20044;-62
2022/12/18 07:52:38;;;;;;;16.88;8.10;;;;;;;;;;21164069;28;20116;-65
2022/12/18 08:02:46;;;;;;;17.30;7.70;;;;;;;;;;21162280;28;20437;-66
2022/12/18 08:12:51;;;;;;;18.27;8.15;;;;;;;;;;21162656;28;20444;-63
2022/12/18 08:22:55;;;;;;;15.35;7.47;;;;;;;;;;21161185;28;20173;-64
2022/12/18 08:32:59;;;;;;;15.48;7.63;;;;;;;;;;21168245;28;20109;-65
2022/12/18 08:53:25;;;;;;;10.95;5.90;;;;;;;;;;21176270;28;20122;-63
2022/12/18 09:03:28;;;;;;;13.07;6.53;;;;;;;;;;21174645;28;20055;-63
2022/12/18 09:13:30;;;;;;;12.65;6.50;;;;;;;;;;21175397;28;20051;-66
2022/12/18 09:23:34;;;;;;;11.82;6.07;;;;;;;;;;21173323;28;20043;-65
2022/12/18 09:33:38;;;;;;;12.30;5.82;;;;;;;;;;21172578;28;20543;-65
2022/12/18 09:43:43;;;;;;;14.50;7.55;;;;;;;;;;21171681;28;20051;-64
2022/12/18 09:53:47;;;;;;;7.57;3.38;;;;;;;;;;21171464;28;20088;-62
2022/12/18 10:03:53;;;;;;;13.00;5.57;;;;;;;;;;21253527;27;20094;-64
2022/12/18 10:14:01;;;;;;;10.40;6.03;;;;;;;;;;21254409;27;20046;-62
2022/12/18 10:24:05;;;;;;;12.68;6.32;;;;;;;;;;21254906;27;20051;-61
2022/12/18 10:34:15;;;;;;;14.82;7.07;;;;;;;;;;21253496;27;20086;-60
2022/12/18 10:44:23;;;;;;;14.32;6.85;;;;;;;;;;21251853;27;20076;-61
2022/12/18 10:54:26;;;;;;;12.57;6.50;;;;;;;;;;21250466;27;20062;-61
2022/12/18 11:04:30;;;;;;;12.88;6.65;;;;;;;;;;21250986;27;20087;-61
2022/12/18 11:14:43;;;;;;;13.48;6.45;;;;;;;;;;21251379;27;20444;-60
2022/12/18 11:24:52;;;;;;;9.52;4.68;;;;;;;;;;21248273;27;20050;-59
2022/12/18 11:35:07;;;;;;;8.00;4.47;;;;;;;;;;21248891;27;20284;-60
2022/12/18 11:45:13;;;;;;;7.10;4.07;;;;;;;;;;21247504;27;20087;-61
2022/12/18 11:55:16;;;;;;;41.22;22.23;;;;;;;;;;21248159;28;20483;-61
2022/12/18 12:05:23;;;;;;;2.83;2.00;;;;;;;;;;21250776;27;20047;-60
2022/12/18 12:15:35;;;;;;;6.43;3.00;;;;;;;;;;21265245;27;20096;-61
2022/12/18 12:25:41;;;;;;;5.15;3.13;;;;;;;;;;21262569;27;20172;-61
2022/12/18 12:35:55;;;;;;;4.13;2.50;;;;;;;;;;21261927;27;20088;-60
2022/12/18 12:46:04;;;;;;;4.63;2.85;;;;;;;;;;21261650;27;20551;-62
2022/12/18 12:56:07;;;;;;;5.40;2.50;;;;;;;;;;21261040;27;20531;-63
2022/12/18 13:06:24;;;;;;;5.38;2.60;;;;;;;;;;21259268;27;20047;-63
2022/12/18 13:16:29;;;;;;;3.72;2.08;;;;;;;;;;21259976;27;20078;-61
2022/12/18 13:26:32;;;;;;;3.72;2.08;;;;;;;;;;21258335;27;20047;-63
2022/12/18 13:36:36;;;;;;;1.60;1.00;;;;;;;;;;21257918;27;20146;-71
2022/12/18 13:46:40;;;;;;;2.97;1.88;;;;;;;;;;21257433;27;20403;-66
2022/12/18 13:56:46;;;;;;;3.25;2.20;;;;;;;;;;21255326;27;20047;-65
2022/12/18 14:06:50;;;;;;;6.78;3.15;;;;;;;;;;21255275;27;20089;-67
2022/12/18 14:16:54;;;;;;;6.60;3.42;;;;;;;;;;21254897;27;20061;-68
2022/12/18 14:27:12;;;;;;;5.25;2.00;;;;;;;;;;21253621;27;20527;-67
2022/12/18 14:37:16;;;;;;;7.53;2.60;;;;;;;;;;21253917;27;20047;-66
2022/12/18 14:47:18;;;;;;;4.25;1.80;;;;;;;;;;21253609;27;20487;-66
2022/12/18 14:57:24;;;;;;;4.75;2.20;;;;;;;;;;21251085;27;20051;-68
2022/12/18 15:07:26;;;;;;;6.05;2.53;;;;;;;;;;21250044;27;20108;-68
2022/12/18 15:17:29;;;;;;;6.85;3.92;;;;;;;;;;21249163;27;20043;-68
2022/12/18 15:27:32;;;;;;;6.57;3.95;;;;;;;;;;21249613;27;20120;-66
2022/12/18 15:37:34;;;;;;;6.25;2.40;;;;;;;;;;21248439;27;20047;-68
2022/12/18 15:47:36;;;;;;;4.95;2.45;;;;;;;;;;21212117;27;20062;-65
2022/12/18 15:57:38;;;;;;;6.75;2.95;;;;;;;;;;21248415;28;20467;-68
2022/12/18 16:07:41;;;;;;;4.30;2.30;;;;;;;;;;21208534;27;20108;-64
2022/12/18 16:17:43;;;;;;;5.10;2.67;;;;;;;;;;21173299;27;20044;-71
2022/12/18 16:27:45;;;;;;;3.83;2.30;;;;;;;;;;21194499;27;20367;-73
2022/12/18 16:37:47;;;;;;;5.90;2.70;;;;;;;;;;21242848;28;20043;-75
2022/12/18 16:47:50;;;;;;;7.97;4.82;;;;;;;;;;21242644;28;20047;-66
2022/12/18 16:57:52;;;;;;;12.52;7.35;;;;;;;;;;21299509;27;20047;-73
2022/12/18 17:07:55;;;;;;;9.60;5.47;;;;;;;;;;21261039;27;20082;-65
2022/12/18 17:17:57;;;;;;;14.57;7.30;;;;;;;;;;21189811;27;20047;-65
2022/12/18 17:27:59;;;;;;;10.25;5.47;;;;;;;;;;21279926;27;20427;-72
2022/12/18 17:38:01;;;;;;;26.55;13.88;;;;;;;;;;21287834;27;20055;-64
2022/12/18 17:48:04;;;;;;;26.92;15.32;;;;;;;;;;21267651;27;20099;-69
2022/12/18 17:58:06;;;;;;;17.95;8.45;;;;;;;;;;21255192;27;20082;-63
2022/12/18 18:08:09;;;;;;;10.35;5.15;;;;;;;;;;21258596;27;20180;-65
2022/12/18 18:18:12;;;;;;;8.75;5.28;;;;;;;;;;21329232;27;20487;-65
2022/12/18 18:28:14;;;;;;;7.85;4.32;;;;;;;;;;21323210;27;20051;-71
2022/12/18 18:38:16;;;;;;;9.00;5.32;;;;;;;;;;21281530;27;20058;-64
2022/12/18 18:48:19;;;;;;;10.73;5.18;;;;;;;;;;21292743;27;20078;-66
2022/12/18 18:58:21;;;;;;;8.07;4.97;;;;;;;;;;21275082;27;20055;-66
2022/12/18 19:08:23;;;;;;;8.13;4.45;;;;;;;;;;21250321;27;20513;-63
2022/12/18 19:18:25;;;;;;;7.30;4.00;;;;;;;;;;21218691;27;20051;-63
2022/12/18 19:28:28;;;;;;;7.70;4.10;;;;;;;;;;21249127;27;20050;-65
2022/12/18 19:38:30;;;;;;;7.60;4.00;;;;;;;;;;21250925;27;20047;-65
2022/12/18 19:48:32;;;;;;;13.15;8.32;;;;;;;;;;21224331;27;20044;-66
2022/12/18 19:58:34;;;;;;;8.77;5.13;;;;;;;;;;21162704;28;20044;-62
2022/12/18 20:08:36;;;;;;;9.18;5.60;;;;;;;;;;21163504;28;20399;-62
2022/12/18 20:18:39;;;;;;;9.95;5.53;;;;;;;;;;21163902;28;20063;-61
2022/12/18 20:28:41;;;;;;;9.40;5.63;;;;;;;;;;21168699;28;20047;-62
2022/12/18 20:38:43;;;;;;;15.27;6.82;;;;;;;;;;21177762;28;20408;-64
2022/12/18 20:48:47;;;;;;;12.55;5.60;;;;;;;;;;21176716;28;20411;-62
2022/12/18 20:58:50;;;;;;;7.35;4.53;;;;;;;;;;21175182;28;20092;-61
2022/12/18 21:08:52;;;;;;;7.88;4.75;;;;;;;;;;21175313;28;20142;-62
2022/12/18 21:18:54;;;;;;;4.85;3.20;;;;;;;;;;21175420;28;20046;-62
2022/12/18 21:28:59;;;;;;;7.80;5.38;;;;;;;;;;21173853;28;20130;-63
2022/12/18 21:39:01;;;;;;;8.82;5.30;;;;;;;;;;21172304;28;20051;-61
2022/12/18 21:49:03;;;;;;;11.80;6.38;;;;;;;;;;21172380;28;20530;-63
2022/12/18 21:59:06;;;;;;;11.45;5.75;;;;;;;;;;21171604;28;20062;-62
2022/12/18 22:09:10;;;;;;;14.15;7.57;;;;;;;;;;21170527;28;20126;-64
2022/12/18 22:19:13;;;;;;;8.65;5.78;;;;;;;;;;21170865;28;20043;-62
2022/12/18 22:39:39;;;;;;;10.95;7.40;;;;;;;;;;21167600;28;20043;-64
2022/12/18 22:49:41;;;;;;;13.48;8.38;;;;;;;;;;21166059;28;20055;-64
2022/12/18 22:59:43;;;;;;;16.17;8.02;;;;;;;;;;21165835;28;20048;-62
2022/12/18 23:09:46;;;;;;;14.95;8.63;;;;;;;;;;21165367;28;20108;-63
2022/12/18 23:19:50;;;;;;;13.23;6.80;;;;;;;;;;21164585;28;20044;-61
2022/12/18 23:29:53;;;;;;;14.57;7.78;;;;;;;;;;21164401;28;20061;-63
2022/12/18 23:39:56;;;;;;;16.33;9.98;;;;;;;;;;21164568;28;20084;-62
2022/12/18 23:49:58;;;;;;;16.05;9.27;;;;;;;;;;21163461;28;20411;-64
